Time;durP1;ratioP1;P1;durP2;ratioP2;P2;SDS_P1;SDS_P2;PMS_P1;PMS_P2;Temp;Humidity;BMP_temperature;BMP_pressure;BME280_temperature;BME280_humidity;BME280_pressure;Samples;Min_cycle;Max_cycle;Signal;HPM_P1;HPM_P2
2023/09/29 00:00:27;;;;;;;15.80;4.28;;;18.20;99.90;;;;;;5051221;28;20256;-69
2023/09/29 00:02:55;;;;;;;13.48;4.93;;;18.20;99.90;;;;;;5051340;28;20632;-69
2023/09/29 00:05:21;;;;;;;13.07;4.68;;;18.20;99.90;;;;;;5049789;28;20499;-69
2023/09/29 00:07:47;;;;;;;16.40;4.63;;;18.20;99.90;;;;;;5051220;28;20017;-70
2023/09/29 00:10:17;;;;;;;12.90;4.63;;;18.20;99.90;;;;;;5051100;28;20052;-70
2023/09/29 00:12:44;;;;;;;13.65;4.38;;;18.20;99.90;;;;;;5051193;28;20435;-69
2023/09/29 00:15:11;;;;;;;14.43;5.07;;;18.20;99.90;;;;;;5051313;28;20021;-70
2023/09/29 00:17:37;;;;;;;10.63;4.03;;;18.10;99.90;;;;;;5050913;28;20049;-69
2023/09/29 00:20:37;;;;;;;12.10;3.92;;;18.10;99.90;;;;;;5051180;28;20055;-69
2023/09/29 00:22:58;;;;;;;17.77;4.75;;;18.10;99.90;;;;;;5051619;28;20033;-69
2023/09/29 00:25:24;;;;;;;14.73;3.90;;;18.10;99.90;;;;;;5050752;28;20025;-69
2023/09/29 00:27:50;;;;;;;13.50;4.57;;;18.10;99.90;;;;;;5051233;28;20099;-69
2023/09/29 00:30:16;;;;;;;15.07;4.25;;;18.10;99.90;;;;;;5050943;28;20582;-70
2023/09/29 00:32:47;;;;;;;11.70;4.15;;;18.00;99.90;;;;;;5050792;28;20036;-69
2023/09/29 00:37:45;;;;;;;13.90;4.68;;;18.00;99.90;;;;;;5054825;28;20040;-69
2023/09/29 00:40:13;;;;;;;10.00;3.88;;;18.10;99.90;;;;;;5054732;28;20021;-69
2023/09/29 00:42:39;;;;;;;12.40;3.92;;;18.10;99.90;;;;;;5054331;28;20063;-69
2023/09/29 00:45:06;;;;;;;16.92;4.32;;;18.10;99.90;;;;;;5054744;28;20021;-69
2023/09/29 00:47:32;;;;;;;13.02;4.10;;;18.10;99.90;;;;;;5053927;28;20495;-69
2023/09/29 00:49:58;;;;;;;10.48;3.70;;;18.00;99.90;;;;;;5054309;28;20523;-70
2023/09/29 00:52:27;;;;;;;13.63;3.95;;;18.00;99.90;;;;;;5054087;28;20098;-70
2023/09/29 00:54:53;;;;;;;19.42;5.40;;;18.00;99.90;;;;;;5054474;28;20395;-70
2023/09/29 00:57:20;;;;;;;11.10;3.88;;;18.00;99.90;;;;;;5053830;28;20531;-70
2023/09/29 00:59:46;;;;;;;14.60;4.43;;;18.00;99.90;;;;;;5054501;28;20024;-70
2023/09/29 01:02:17;;;;;;;10.60;3.78;;;18.00;99.90;;;;;;5053733;28;20025;-69
2023/09/29 01:04:48;;;;;;;14.82;4.85;;;18.00;99.90;;;;;;5054396;28;20106;-69
2023/09/29 01:07:15;;;;;;;13.35;4.18;;;18.00;99.90;;;;;;5053739;28;20151;-69
2023/09/29 01:09:41;;;;;;;13.05;4.13;;;18.00;99.90;;;;;;5054224;28;20017;-69
2023/09/29 01:12:10;;;;;;;17.10;4.68;;;18.00;99.90;;;;;;5053553;28;20024;-69
2023/09/29 01:14:35;;;;;;;12.63;4.25;;;18.00;99.90;;;;;;5053018;28;20029;-70
2023/09/29 01:17:01;;;;;;;10.80;4.40;;;18.00;99.90;;;;;;5053535;28;20025;-69
2023/09/29 01:19:27;;;;;;;13.43;4.20;;;18.00;99.90;;;;;;5054151;28;20070;-69
2023/09/29 01:21:53;;;;;;;10.70;3.58;;;18.00;99.90;;;;;;5053515;28;20021;-69
2023/09/29 01:24:19;;;;;;;16.15;4.82;;;18.00;99.90;;;;;;5054370;28;20021;-69
2023/09/29 01:26:45;;;;;;;12.55;4.70;;;18.00;99.90;;;;;;5053382;28;20029;-69
2023/09/29 01:29:11;;;;;;;10.88;4.53;;;18.00;99.90;;;;;;5053881;28;20545;-69
2023/09/29 01:31:38;;;;;;;11.38;4.80;;;18.00;99.90;;;;;;5053097;28;20067;-69
2023/09/29 01:34:05;;;;;;;15.82;4.78;;;18.00;99.90;;;;;;5053894;28;20104;-69
2023/09/29 01:36:32;;;;;;;13.63;4.53;;;18.00;99.90;;;;;;5053280;28;20028;-70
2023/09/29 01:38:57;;;;;;;14.55;5.15;;;18.00;99.90;;;;;;5053646;28;20025;-69
2023/09/29 01:41:24;;;;;;;15.52;5.00;;;18.00;99.90;;;;;;5052914;28;20028;-70
2023/09/29 01:43:50;;;;;;;15.00;5.35;;;18.00;99.90;;;;;;5053664;28;20552;-70
2023/09/29 01:46:15;;;;;;;12.40;4.70;;;18.00;99.90;;;;;;5051828;28;20063;-69
2023/09/29 01:48:41;;;;;;;14.25;5.50;;;18.00;99.90;;;;;;5051826;28;20035;-69
2023/09/29 01:51:08;;;;;;;12.88;4.72;;;18.00;99.90;;;;;;5052728;28;20024;-69
2023/09/29 01:53:33;;;;;;;15.40;5.00;;;18.00;99.90;;;;;;5053555;28;20083;-69
2023/09/29 01:55:59;;;;;;;15.15;5.53;;;18.00;99.90;;;;;;5052733;28;20426;-70
2023/09/29 01:58:27;;;;;;;11.88;5.22;;;18.10;99.90;;;;;;5053352;28;20028;-69
2023/09/29 02:00:54;;;;;;;11.68;5.00;;;18.10;99.90;;;;;;5052838;28;20435;-69
2023/09/29 02:03:20;;;;;;;16.05;5.38;;;18.10;99.90;;;;;;5053230;28;20407;-69
2023/09/29 02:05:46;;;;;;;9.05;4.50;;;18.10;99.90;;;;;;5052847;28;20028;-69
2023/09/29 02:08:11;;;;;;;15.15;5.20;;;18.10;99.90;;;;;;5051539;28;20056;-69
2023/09/29 02:10:37;;;;;;;13.90;5.07;;;18.10;99.90;;;;;;5051597;28;20443;-69
2023/09/29 02:13:04;;;;;;;11.35;4.38;;;18.10;99.90;;;;;;5052762;28;20029;-69
2023/09/29 02:15:34;;;;;;;9.43;4.15;;;18.20;99.90;;;;;;5052821;28;20542;-69
2023/09/29 02:18:09;;;;;;;14.15;4.78;;;18.20;99.90;;;;;;5051230;28;20028;-69
2023/09/29 02:20:41;;;;;;;11.40;4.90;;;18.20;99.90;;;;;;5052770;28;20103;-69
2023/09/29 02:23:07;;;;;;;10.38;4.80;;;18.30;99.90;;;;;;5052672;28;20024;-70
2023/09/29 02:25:33;;;;;;;10.57;4.93;;;18.30;99.90;;;;;;5052633;28;20039;-69
2023/09/29 02:27:59;;;;;;;14.80;5.47;;;18.30;99.90;;;;;;5052215;28;20021;-70
2023/09/29 02:30:26;;;;;;;10.18;4.70;;;18.30;99.90;;;;;;5052722;28;20025;-70
2023/09/29 02:32:53;;;;;;;13.80;6.10;;;18.30;99.90;;;;;;5050682;28;20442;-69
2023/09/29 02:35:19;;;;;;;11.93;5.05;;;18.30;99.90;;;;;;5052605;28;20017;-69
2023/09/29 02:37:48;;;;;;;12.32;5.05;;;18.30;99.90;;;;;;5052067;28;20032;-69
2023/09/29 02:40:16;;;;;;;10.23;5.45;;;18.30;99.90;;;;;;5052576;28;20021;-69
2023/09/29 02:42:46;;;;;;;11.95;5.10;;;18.30;99.90;;;;;;5051789;28;20017;-69
2023/09/29 02:45:12;;;;;;;10.55;5.40;;;18.30;99.90;;;;;;5052490;28;20544;-69
2023/09/29 02:47:42;;;;;;;12.57;5.25;;;18.20;99.90;;;;;;5051835;28;20020;-70
2023/09/29 02:50:11;;;;;;;11.18;4.65;;;18.30;99.90;;;;;;5052111;28;20533;-69
2023/09/29 02:52:38;;;;;;;9.68;5.30;;;18.20;99.90;;;;;;5051703;28;20025;-69
2023/09/29 02:55:11;;;;;;;10.32;4.43;;;18.30;99.90;;;;;;5052244;28;20149;-69
2023/09/29 02:57:37;;;;;;;11.90;4.15;;;18.30;99.90;;;;;;5051468;28;20017;-69
2023/09/29 03:00:22;;;;;;;7.40;4.00;;;18.30;99.90;;;;;;5052340;28;20032;-69
2023/09/29 03:02:48;;;;;;;7.55;4.53;;;18.30;99.90;;;;;;5051596;28;20025;-69
2023/09/29 03:05:15;;;;;;;9.73;4.47;;;18.30;99.90;;;;;;5052216;28;20029;-69
2023/09/29 03:07:41;;;;;;;12.65;4.60;;;18.30;99.90;;;;;;5051349;28;20506;-69
2023/09/29 03:10:08;;;;;;;12.73;4.43;;;18.30;99.90;;;;;;5052317;28;20060;-69
2023/09/29 03:12:36;;;;;;;9.90;3.90;;;18.30;99.90;;;;;;5051253;28;20116;-70
2023/09/29 03:15:01;;;;;;;8.27;3.63;;;18.20;99.90;;;;;;5051987;28;20032;-69
2023/09/29 03:17:30;;;;;;;7.68;3.90;;;18.20;99.90;;;;;;5051378;28;20021;-69
2023/09/29 03:19:55;;;;;;;7.47;3.38;;;18.20;99.90;;;;;;5050613;28;20087;-69
2023/09/29 03:22:21;;;;;;;9.80;3.25;;;18.30;99.90;;;;;;5051225;28;20025;-69
2023/09/29 03:24:47;;;;;;;9.02;3.58;;;18.20;99.90;;;;;;5052016;28;20112;-69
2023/09/29 03:27:12;;;;;;;7.05;2.95;;;18.30;99.90;;;;;;5051128;28;20031;-69
2023/09/29 03:29:38;;;;;;;6.85;2.92;;;18.30;99.90;;;;;;5052051;28;20117;-69
2023/09/29 03:32:04;;;;;;;7.55;3.35;;;18.30;99.90;;;;;;5051299;28;20147;-69
2023/09/29 03:34:29;;;;;;;6.97;2.97;;;18.30;99.90;;;;;;5051717;28;20471;-69
2023/09/29 03:36:55;;;;;;;8.35;3.20;;;18.40;99.90;;;;;;5050926;28;20022;-69
2023/09/29 03:39:20;;;;;;;7.45;3.55;;;18.40;99.90;;;;;;5051928;28;20362;-69
2023/09/29 03:41:49;;;;;;;9.25;3.33;;;18.40;99.90;;;;;;5051206;28;20013;-69
2023/09/29 03:44:14;;;;;;;7.03;3.20;;;18.40;99.90;;;;;;5051767;28;20082;-69
2023/09/29 03:46:40;;;;;;;7.80;3.13;;;18.40;99.90;;;;;;5049667;28;20024;-69
2023/09/29 03:49:06;;;;;;;6.78;3.13;;;18.40;99.90;;;;;;5051378;28;20380;-69
2023/09/29 03:51:33;;;;;;;7.78;3.45;;;18.50;99.90;;;;;;5050916;28;20104;-69
2023/09/29 03:53:59;;;;;;;7.93;3.25;;;18.50;99.90;;;;;;5050197;28;20032;-69
2023/09/29 03:56:25;;;;;;;4.95;2.55;;;18.50;99.90;;;;;;5051103;28;20017;-69
2023/09/29 03:58:55;;;;;;;5.20;2.60;;;18.50;99.90;;;;;;5050164;28;20503;-69
2023/09/29 04:01:21;;;;;;;8.95;3.20;;;18.50;99.90;;;;;;5049759;28;20072;-69
2023/09/29 04:03:47;;;;;;;5.90;2.80;;;18.50;99.90;;;;;;5051406;28;20032;-69
2023/09/29 04:06:13;;;;;;;8.45;2.72;;;18.50;99.90;;;;;;5050926;28;20024;-69
2023/09/29 04:08:39;;;;;;;8.60;3.40;;;18.50;99.90;;;;;;5051155;28;20159;-70
2023/09/29 04:11:05;;;;;;;7.45;2.47;;;18.50;99.90;;;;;;5054781;28;20028;-69
2023/09/29 04:13:31;;;;;;;7.43;2.60;;;18.50;99.90;;;;;;5055001;28;20365;-69
2023/09/29 04:15:59;;;;;;;6.05;2.80;;;18.50;99.90;;;;;;5055406;28;20024;-69
2023/09/29 04:18:24;;;;;;;9.23;3.03;;;18.50;99.90;;;;;;5055023;28;20021;-69
2023/09/29 04:20:50;;;;;;;7.45;2.65;;;18.60;99.90;;;;;;5055314;28;20024;-70
2023/09/29 04:23:16;;;;;;;7.53;2.90;;;18.60;99.90;;;;;;5054896;28;20107;-70
2023/09/29 04:25:43;;;;;;;6.40;2.63;;;18.60;99.90;;;;;;5055322;28;20025;-70
2023/09/29 04:28:09;;;;;;;5.68;2.95;;;18.60;99.90;;;;;;5054381;28;20044;-69
2023/09/29 04:30:34;;;;;;;5.28;2.38;;;18.60;99.90;;;;;;5053721;28;20028;-69
2023/09/29 04:33:00;;;;;;;5.03;2.50;;;18.60;99.90;;;;;;5054260;28;20021;-69
2023/09/29 04:35:26;;;;;;;9.30;2.70;;;18.60;99.90;;;;;;5053664;28;20116;-70
2023/09/29 04:37:52;;;;;;;7.25;2.72;;;18.60;99.90;;;;;;5054405;28;20025;-69
2023/09/29 04:40:18;;;;;;;4.90;2.60;;;18.60;99.90;;;;;;5054840;28;20021;-69
2023/09/29 04:42:44;;;;;;;5.57;2.35;;;18.60;99.90;;;;;;5054113;28;20439;-69
2023/09/29 04:45:09;;;;;;;4.57;2.17;;;18.70;99.90;;;;;;5054826;28;20031;-69
2023/09/29 04:47:35;;;;;;;6.05;2.30;;;18.70;99.90;;;;;;5054142;28;20051;-69
2023/09/29 04:50:01;;;;;;;6.10;2.55;;;18.70;99.90;;;;;;5054346;28;20526;-69
2023/09/29 04:52:27;;;;;;;7.80;2.60;;;18.70;99.90;;;;;;5053963;28;20021;-69
2023/09/29 04:54:53;;;;;;;4.63;2.20;;;18.80;99.90;;;;;;5054761;28;20013;-69
2023/09/29 04:57:19;;;;;;;6.53;2.60;;;18.80;99.90;;;;;;5054042;28;20027;-69
2023/09/29 04:59:46;;;;;;;7.60;2.25;;;18.80;99.90;;;;;;5054481;28;20078;-69
2023/09/29 05:02:12;;;;;;;6.90;2.30;;;18.80;99.90;;;;;;5053632;28;20079;-69
2023/09/29 05:04:39;;;;;;;5.85;2.60;;;18.80;99.90;;;;;;5054335;28;20391;-69
2023/09/29 05:07:04;;;;;;;8.43;2.67;;;18.80;99.90;;;;;;5053712;28;20376;-69
2023/09/29 05:09:30;;;;;;;5.70;2.67;;;18.80;99.90;;;;;;5054274;28;20112;-69
2023/09/29 05:11:56;;;;;;;9.10;2.90;;;18.80;99.90;;;;;;5053708;28;20032;-69
2023/09/29 05:14:21;;;;;;;8.63;2.95;;;18.80;99.90;;;;;;5054191;28;20095;-69
2023/09/29 05:16:49;;;;;;;5.78;2.70;;;18.90;99.90;;;;;;5053923;28;20029;-69
2023/09/29 05:19:15;;;;;;;6.22;2.40;;;18.90;99.90;;;;;;5054150;28;20096;-69
2023/09/29 05:21:41;;;;;;;6.82;2.65;;;18.80;99.90;;;;;;5052092;28;20163;-69
2023/09/29 05:24:08;;;;;;;5.15;2.25;;;18.80;99.90;;;;;;5053824;28;20078;-70
2023/09/29 05:26:34;;;;;;;5.50;2.83;;;18.80;99.90;;;;;;5053596;28;20033;-70
2023/09/29 05:29:00;;;;;;;5.22;2.38;;;18.80;99.90;;;;;;5053860;28;20387;-69
2023/09/29 05:31:26;;;;;;;3.95;2.33;;;18.80;99.90;;;;;;5053483;28;20021;-69
2023/09/29 05:33:54;;;;;;;6.72;2.85;;;18.80;99.90;;;;;;5053560;28;20021;-69
2023/09/29 05:36:21;;;;;;;4.68;2.22;;;18.80;99.90;;;;;;5053403;28;20031;-69
2023/09/29 05:38:47;;;;;;;5.15;2.45;;;18.80;99.90;;;;;;5053812;28;20025;-69
2023/09/29 05:41:12;;;;;;;4.47;2.38;;;18.80;99.90;;;;;;5053678;28;20017;-69
2023/09/29 05:43:38;;;;;;;6.82;2.60;;;18.80;99.90;;;;;;5053325;28;20365;-69
2023/09/29 05:46:04;;;;;;;5.35;2.50;;;18.90;99.90;;;;;;5053747;28;20033;-69
2023/09/29 05:48:29;;;;;;;7.43;2.50;;;18.90;99.90;;;;;;5052734;28;20112;-69
2023/09/29 05:50:55;;;;;;;4.13;2.08;;;18.90;99.90;;;;;;5053479;28;20033;-69
2023/09/29 05:53:21;;;;;;;6.45;2.75;;;18.90;99.90;;;;;;5052918;28;20025;-69
2023/09/29 05:55:46;;;;;;;7.00;2.53;;;19.00;99.90;;;;;;5053726;28;20459;-70
2023/09/29 05:58:12;;;;;;;4.80;2.40;;;19.00;99.90;;;;;;5052815;28;20024;-70
2023/09/29 06:00:40;;;;;;;6.80;2.28;;;19.00;99.90;;;;;;5052205;28;20017;-70
2023/09/29 06:03:06;;;;;;;3.90;2.33;;;19.00;99.90;;;;;;5052703;28;20544;-70
2023/09/29 06:05:31;;;;;;;4.57;2.13;;;19.00;99.90;;;;;;5053309;28;20024;-70
2023/09/29 06:07:57;;;;;;;5.70;2.50;;;19.00;99.90;;;;;;5052674;28;20017;-70
2023/09/29 06:10:23;;;;;;;4.45;2.33;;;19.10;99.90;;;;;;5053327;28;20028;-70
2023/09/29 06:12:49;;;;;;;5.57;2.92;;;19.10;99.90;;;;;;5052561;28;20025;-70
2023/09/29 06:15:14;;;;;;;4.93;2.60;;;19.10;99.90;;;;;;5053085;28;20021;-70
2023/09/29 06:17:40;;;;;;;7.88;2.40;;;19.10;99.90;;;;;;5052491;28;20031;-70
2023/09/29 06:20:07;;;;;;;5.90;2.65;;;19.10;99.90;;;;;;5053047;28;20059;-70
2023/09/29 06:22:34;;;;;;;4.57;2.35;;;19.10;99.90;;;;;;5052269;28;20021;-70
2023/09/29 06:25:00;;;;;;;6.13;2.10;;;19.20;99.90;;;;;;5053020;28;20491;-70
2023/09/29 06:27:27;;;;;;;4.65;2.35;;;19.10;99.90;;;;;;5052286;28;20017;-70
2023/09/29 06:29:53;;;;;;;6.07;2.53;;;19.20;99.90;;;;;;5053220;28;20021;-70
2023/09/29 06:32:19;;;;;;;4.78;2.60;;;19.30;99.90;;;;;;5051555;28;20430;-70
2023/09/29 06:34:45;;;;;;;5.50;2.35;;;19.30;99.90;;;;;;5052526;28;20029;-69
2023/09/29 06:37:11;;;;;;;6.50;1.92;;;19.30;99.90;;;;;;5052157;28;20080;-70
2023/09/29 06:39:37;;;;;;;5.45;2.63;;;19.30;99.90;;;;;;5052846;28;20052;-70
2023/09/29 06:42:03;;;;;;;4.03;2.10;;;19.30;99.90;;;;;;5052059;28;20500;-70
2023/09/29 06:44:30;;;;;;;4.40;2.28;;;19.40;99.90;;;;;;5052397;28;20544;-70
2023/09/29 06:46:56;;;;;;;7.68;2.30;;;19.40;99.90;;;;;;5051848;28;20051;-70
2023/09/29 06:49:21;;;;;;;4.28;2.78;;;19.40;99.90;;;;;;5052138;28;20084;-69
2023/09/29 06:51:48;;;;;;;4.68;2.40;;;19.40;99.90;;;;;;5052116;28;20025;-70
2023/09/29 06:54:14;;;;;;;4.18;2.17;;;19.40;99.90;;;;;;5052148;28;20062;-70
2023/09/29 06:56:40;;;;;;;4.50;2.50;;;19.40;99.90;;;;;;5052061;28;20017;-70
2023/09/29 06:59:06;;;;;;;4.35;2.70;;;19.40;99.90;;;;;;5052291;28;20059;-70
2023/09/29 07:01:32;;;;;;;5.53;2.50;;;19.40;99.90;;;;;;5052073;28;20028;-70
2023/09/29 07:03:58;;;;;;;7.38;2.63;;;19.50;99.90;;;;;;5051830;28;20144;-70
2023/09/29 07:06:24;;;;;;;5.47;2.20;;;19.50;99.90;;;;;;5051968;28;20115;-70
2023/09/29 07:08:50;;;;;;;5.80;2.58;;;19.50;99.90;;;;;;5051572;28;20013;-70
2023/09/29 07:11:16;;;;;;;6.25;2.67;;;19.50;99.90;;;;;;5052032;28;20036;-70
2023/09/29 07:13:42;;;;;;;5.05;2.08;;;19.50;99.90;;;;;;5051359;28;20017;-70
2023/09/29 07:16:07;;;;;;;4.93;2.20;;;19.50;99.90;;;;;;5052080;28;20048;-70
2023/09/29 07:18:33;;;;;;;6.07;2.42;;;19.50;99.90;;;;;;5051301;28;20070;-70
2023/09/29 07:20:59;;;;;;;3.85;2.33;;;19.60;99.90;;;;;;5052175;28;20075;-70
2023/09/29 07:23:25;;;;;;;4.28;2.50;;;19.60;99.90;;;;;;5051573;28;20021;-69
2023/09/29 07:25:52;;;;;;;5.88;2.47;;;19.60;99.90;;;;;;5051937;28;20483;-70
2023/09/29 07:28:19;;;;;;;4.50;2.50;;;19.60;99.90;;;;;;5050051;28;20029;-70
2023/09/29 07:30:45;;;;;;;4.13;2.40;;;19.70;99.90;;;;;;5051938;28;20029;-70
2023/09/29 07:33:11;;;;;;;4.95;2.67;;;19.70;99.90;;;;;;5051258;28;20112;-70
2023/09/29 07:35:44;;;;;;;4.03;2.58;;;19.70;99.90;;;;;;5051930;28;20025;-70
2023/09/29 07:38:10;;;;;;;5.00;2.55;;;19.70;99.90;;;;;;5051137;28;20021;-70
2023/09/29 07:40:35;;;;;;;5.57;2.65;;;19.70;99.90;;;;;;5051810;28;20028;-70
2023/09/29 07:43:02;;;;;;;8.20;2.72;;;19.80;99.90;;;;;;5051308;28;20028;-70
2023/09/29 07:45:28;;;;;;;6.75;2.85;;;19.80;99.90;;;;;;5054817;28;20125;-70
2023/09/29 07:47:54;;;;;;;6.15;2.75;;;19.80;99.90;;;;;;5055222;28;20063;-70
2023/09/29 07:50:20;;;;;;;5.45;2.40;;;19.80;99.90;;;;;;5055671;28;20061;-70
2023/09/29 07:52:45;;;;;;;6.40;2.42;;;19.90;99.90;;;;;;5055179;28;20017;-70
2023/09/29 07:55:12;;;;;;;6.13;2.90;;;19.90;99.90;;;;;;5056146;28;20024;-70
2023/09/29 07:57:38;;;;;;;6.05;2.53;;;20.00;99.90;;;;;;5055138;28;20062;-70
2023/09/29 08:00:12;;;;;;;6.65;2.55;;;20.00;99.90;;;;;;5055705;28;20056;-70
2023/09/29 08:02:39;;;;;;;4.68;2.22;;;20.00;99.90;;;;;;5055078;28;20025;-70
2023/09/29 08:05:06;;;;;;;4.53;2.50;;;20.10;99.90;;;;;;5055610;28;20513;-70
2023/09/29 08:07:32;;;;;;;6.10;2.35;;;20.20;99.90;;;;;;5055240;28;20507;-70
2023/09/29 08:09:58;;;;;;;5.20;2.53;;;20.20;99.90;;;;;;5055469;28;20044;-70
2023/09/29 08:12:23;;;;;;;20.48;2.83;;;20.20;99.90;;;;;;5054821;28;20017;-70
2023/09/29 08:14:50;;;;;;;5.70;2.30;;;20.30;99.90;;;;;;5055409;28;20104;-70
2023/09/29 08:17:16;;;;;;;5.57;2.05;;;20.40;99.90;;;;;;5054780;28;20045;-70
2023/09/29 08:19:41;;;;;;;5.47;2.72;;;20.40;99.90;;;;;;5053938;28;20056;-70
2023/09/29 08:22:07;;;;;;;4.65;2.55;;;20.40;99.90;;;;;;5054812;28;20066;-70
2023/09/29 08:24:34;;;;;;;4.25;2.15;;;20.40;99.90;;;;;;5055075;28;20025;-70
2023/09/29 08:27:02;;;;;;;3.83;1.98;;;20.50;99.90;;;;;;5054681;28;20078;-71
2023/09/29 08:29:29;;;;;;;6.30;2.20;;;20.60;99.90;;;;;;5054897;28;20017;-70
2023/09/29 08:31:56;;;;;;;6.65;2.45;;;20.60;99.90;;;;;;5054489;28;20037;-70
2023/09/29 08:34:21;;;;;;;5.13;2.40;;;20.70;99.90;;;;;;5054689;28;20032;-70
2023/09/29 08:36:47;;;;;;;7.68;2.25;;;20.70;99.90;;;;;;5054771;28;20104;-70
2023/09/29 08:39:13;;;;;;;5.18;2.30;;;20.80;99.90;;;;;;5054589;28;20048;-70
2023/09/29 08:42:05;;;;;;;4.28;2.30;;;20.80;99.90;;;;;;5054994;28;20017;-70
2023/09/29 08:44:33;;;;;;;3.75;2.30;;;20.90;99.90;;;;;;5054505;28;20021;-70
2023/09/29 08:47:02;;;;;;;4.70;2.13;;;21.00;99.90;;;;;;5052883;28;20063;-70
2023/09/29 08:49:29;;;;;;;4.20;1.92;;;21.10;99.90;;;;;;5054506;28;20068;-70
2023/09/29 08:51:55;;;;;;;6.18;2.35;;;21.10;99.90;;;;;;5054571;28;20446;-70
2023/09/29 08:54:23;;;;;;;7.65;2.92;;;21.20;99.90;;;;;;5054373;28;20021;-70
2023/09/29 08:56:50;;;;;;;6.28;2.13;;;21.20;99.90;;;;;;5053872;28;20041;-70
2023/09/29 08:59:16;;;;;;;5.50;2.35;;;21.30;99.90;;;;;;5054320;28;20025;-70
2023/09/29 09:01:42;;;;;;;4.47;2.47;;;21.30;99.90;;;;;;5054652;28;20017;-70
2023/09/29 09:04:08;;;;;;;5.97;2.15;;;21.40;99.90;;;;;;5054068;28;20017;-70
2023/09/29 09:06:34;;;;;;;5.40;2.50;;;21.40;99.90;;;;;;5054604;28;20025;-70
2023/09/29 09:08:59;;;;;;;5.20;2.30;;;21.50;99.90;;;;;;5053708;28;20430;-70
2023/09/29 09:11:27;;;;;;;3.97;2.22;;;21.50;99.90;;;;;;5054285;28;20028;-69
2023/09/29 09:14:04;;;;;;;4.03;1.98;;;21.60;99.90;;;;;;5052345;28;20025;-70
2023/09/29 09:16:34;;;;;;;6.93;2.22;;;21.60;99.90;;;;;;5054328;28;20028;-70
2023/09/29 09:19:09;;;;;;;4.25;2.42;;;21.60;99.90;;;;;;5053546;28;20514;-69
2023/09/29 09:21:35;;;;;;;5.13;2.40;;;21.70;99.90;;;;;;5054114;28;20684;-70
2023/09/29 09:24:04;;;;;;;4.68;2.60;;;21.70;99.90;;;;;;5053360;28;20259;-70
2023/09/29 09:26:30;;;;;;;5.85;2.35;;;21.80;99.90;;;;;;5054044;28;20047;-70
2023/09/29 09:29:08;;;;;;;4.03;2.00;;;21.80;99.90;;;;;;5053529;28;20478;-70
2023/09/29 09:31:53;;;;;;;6.63;2.30;;;21.90;99.90;;;;;;5052782;28;20044;-70
2023/09/29 09:34:19;;;;;;;4.82;2.35;;;21.90;99.90;;;;;;5052035;28;20551;-70
2023/09/29 09:36:54;;;;;;;7.03;2.45;;;21.90;99.90;;;;;;5053835;28;20112;-70
2023/09/29 09:39:23;;;;;;;8.43;2.60;;;21.90;99.90;;;;;;5053400;28;20023;-70
2023/09/29 09:41:56;;;;;;;6.30;2.50;;;21.90;99.90;;;;;;5053918;28;20023;-70
2023/09/29 09:44:22;;;;;;;4.85;2.20;;;21.90;99.90;;;;;;5053235;28;20105;-70
2023/09/29 09:47:00;;;;;;;5.57;2.40;;;21.90;99.90;;;;;;5053573;28;20029;-70
2023/09/29 09:49:36;;;;;;;4.95;2.20;;;22.00;99.90;;;;;;5053041;28;20048;-70
2023/09/29 09:52:15;;;;;;;6.10;2.60;;;22.00;99.90;;;;;;5053390;28;20029;-70
2023/09/29 09:54:51;;;;;;;6.25;2.40;;;22.00;99.90;;;;;;5053320;28;20025;-70
2023/09/29 09:57:45;;;;;;;4.53;2.13;;;22.00;99.90;;;;;;5053048;28;20108;-70
2023/09/29 10:00:12;;;;;;;6.00;2.70;;;22.00;99.90;;;;;;5053441;28;20024;-70
2023/09/29 10:02:40;;;;;;;5.45;2.38;;;21.90;99.90;;;;;;5052853;28;20025;-70
2023/09/29 10:05:17;;;;;;;7.10;2.35;;;21.90;99.90;;;;;;5053365;28;20021;-70
2023/09/29 10:07:47;;;;;;;5.68;2.50;;;21.90;99.90;;;;;;5051939;28;20028;-70
2023/09/29 10:10:26;;;;;;;4.43;2.20;;;21.90;99.90;;;;;;5053307;28;20020;-70
2023/09/29 10:12:56;;;;;;;8.40;2.70;;;21.90;99.90;;;;;;5052686;28;20024;-70
2023/09/29 10:15:21;;;;;;;7.63;2.35;;;21.90;99.90;;;;;;5053207;28;20025;-70
2023/09/29 10:17:49;;;;;;;6.72;2.67;;;21.90;99.90;;;;;;5051135;28;20106;-70
2023/09/29 10:20:28;;;;;;;5.82;2.65;;;21.90;99.90;;;;;;5053005;28;20029;-70
2023/09/29 10:23:06;;;;;;;8.23;2.53;;;22.00;99.90;;;;;;5052575;28;20434;-69
2023/09/29 10:25:34;;;;;;;7.10;2.88;;;22.00;99.90;;;;;;5053019;28;20087;-70
2023/09/29 10:28:01;;;;;;;7.07;3.00;;;22.10;99.90;;;;;;5050965;28;20504;-69
2023/09/29 10:30:27;;;;;;;6.13;2.20;;;22.10;99.90;;;;;;5052846;28;20364;-70
2023/09/29 10:33:05;;;;;;;6.40;2.30;;;22.10;99.90;;;;;;5052042;28;20472;-70
2023/09/29 10:35:33;;;;;;;5.80;2.05;;;22.00;99.90;;;;;;5051453;28;20117;-70
2023/09/29 10:38:06;;;;;;;4.45;1.77;;;22.00;99.90;;;;;;5052277;28;20021;-70
2023/09/29 10:40:32;;;;;;;4.28;2.05;;;21.90;99.90;;;;;;5052923;28;20024;-70
2023/09/29 10:43:04;;;;;;;8.15;2.38;;;21.90;99.90;;;;;;5052219;28;20487;-70
2023/09/29 10:45:37;;;;;;;5.68;2.08;;;21.90;99.90;;;;;;5051192;28;20028;-70
2023/09/29 10:48:10;;;;;;;10.32;2.58;;;21.80;99.90;;;;;;5051928;28;20033;-70
2023/09/29 10:50:49;;;;;;;4.43;1.83;;;21.70;99.90;;;;;;5052340;28;20132;-70
2023/09/29 10:53:16;;;;;;;4.80;2.10;;;21.70;99.90;;;;;;5051779;28;20198;-70
2023/09/29 10:55:47;;;;;;;4.70;2.00;;;21.60;99.90;;;;;;5052409;28;20469;-70
2023/09/29 10:58:14;;;;;;;7.57;2.05;;;21.60;99.90;;;;;;5051549;28;20027;-70
2023/09/29 11:00:49;;;;;;;4.00;1.92;;;21.60;99.90;;;;;;5052394;28;20398;-70
2023/09/29 11:03:17;;;;;;;6.47;2.42;;;21.50;99.90;;;;;;5051762;28;20261;-70
2023/09/29 11:05:50;;;;;;;4.72;2.25;;;21.50;99.90;;;;;;5052405;28;20044;-70
2023/09/29 11:08:22;;;;;;;3.92;1.80;;;21.40;99.90;;;;;;5051545;28;20068;-70
2023/09/29 11:11:13;;;;;;;3.67;1.90;;;21.40;99.90;;;;;;5052224;28;20021;-70
2023/09/29 11:13:39;;;;;;;6.60;2.45;;;21.40;99.90;;;;;;5048775;28;20411;-70
2023/09/29 11:16:19;;;;;;;4.85;2.20;;;21.40;99.90;;;;;;5052210;28;20020;-70
2023/09/29 11:18:45;;;;;;;4.03;2.00;;;21.40;99.90;;;;;;5050071;28;20036;-70
2023/09/29 11:21:12;;;;;;;5.18;2.45;;;21.40;99.90;;;;;;5050700;28;20025;-70
2023/09/29 11:23:43;;;;;;;5.20;2.28;;;21.40;99.90;;;;;;5051329;28;20479;-70
2023/09/29 11:26:10;;;;;;;4.50;2.00;;;21.40;99.90;;;;;;5052068;28;20025;-70
2023/09/29 11:28:47;;;;;;;5.28;2.42;;;21.50;99.90;;;;;;5050022;28;20549;-70
2023/09/29 11:31:16;;;;;;;4.40;2.35;;;21.40;99.90;;;;;;5050841;28;20025;-70
2023/09/29 11:33:44;;;;;;;6.43;2.53;;;21.40;99.90;;;;;;5051110;28;20111;-70
2023/09/29 11:36:29;;;;;;;9.23;2.42;;;21.50;99.90;;;;;;5052162;28;20021;-70
2023/09/29 11:38:55;;;;;;;5.40;2.40;;;21.50;99.90;;;;;;5051149;28;20029;-70
2023/09/29 11:41:22;;;;;;;4.35;1.80;;;21.60;99.90;;;;;;5050534;28;20104;-70
2023/09/29 11:43:48;;;;;;;6.20;2.53;;;21.60;99.90;;;;;;5049803;28;20456;-70
2023/09/29 11:46:14;;;;;;;5.63;2.90;;;21.60;99.90;;;;;;5051723;28;20028;-70
2023/09/29 11:48:41;;;;;;;4.63;2.35;;;21.60;99.90;;;;;;5050655;28;20510;-70
2023/09/29 11:51:10;;;;;;;4.50;2.33;;;21.70;99.90;;;;;;5051651;28;20043;-70
2023/09/29 11:53:38;;;;;;;5.25;2.40;;;21.70;99.90;;;;;;5051045;28;20033;-70
2023/09/29 11:56:05;;;;;;;4.75;2.33;;;21.80;99.90;;;;;;5052156;28;20020;-70
2023/09/29 11:58:31;;;;;;;4.32;2.10;;;21.80;99.90;;;;;;5050913;28;20019;-70
2023/09/29 12:00:58;;;;;;;3.83;1.73;;;21.80;99.90;;;;;;5051574;28;20423;-70
2023/09/29 12:03:24;;;;;;;5.47;2.63;;;21.70;99.90;;;;;;5050794;28;20395;-70
2023/09/29 12:05:50;;;;;;;4.53;2.05;;;21.70;99.90;;;;;;5051836;28;20112;-70
2023/09/29 12:08:16;;;;;;;4.53;2.05;;;21.60;99.90;;;;;;5051038;28;20021;-70
2023/09/29 12:10:42;;;;;;;3.50;2.15;;;21.60;99.90;;;;;;5051621;28;20048;-70
2023/09/29 12:13:10;;;;;;;6.18;2.85;;;21.50;99.90;;;;;;5049698;28;20057;-70
2023/09/29 12:15:36;;;;;;;6.22;2.55;;;21.50;99.90;;;;;;5051641;28;20031;-70
2023/09/29 12:18:01;;;;;;;5.43;3.08;;;21.50;99.90;;;;;;5051007;28;20112;-69
2023/09/29 12:20:28;;;;;;;7.15;3.55;;;21.50;99.90;;;;;;5051552;28;20017;-69
2023/09/29 12:22:55;;;;;;;4.20;2.42;;;21.40;99.90;;;;;;5049776;28;20391;-70
2023/09/29 12:25:21;;;;;;;4.45;2.53;;;21.40;99.90;;;;;;5051271;28;20067;-69
2023/09/29 12:27:48;;;;;;;6.68;2.80;;;21.30;99.90;;;;;;5051221;28;20052;-70
2023/09/29 12:30:14;;;;;;;5.97;2.78;;;21.30;99.90;;;;;;5051912;28;20555;-69
2023/09/29 12:32:41;;;;;;;5.50;2.67;;;21.20;99.90;;;;;;5055043;28;20047;-69
2023/09/29 12:35:14;;;;;;;3.75;2.40;;;21.20;99.90;;;;;;5055084;28;20092;-70
2023/09/29 12:37:42;;;;;;;4.68;1.98;;;21.10;99.90;;;;;;5054862;28;20032;-69
2023/09/29 12:40:09;;;;;;;3.25;1.70;;;21.00;99.90;;;;;;5053579;28;20483;-70
2023/09/29 12:42:35;;;;;;;3.97;1.52;;;20.90;99.90;;;;;;5054809;28;20372;-69
2023/09/29 12:45:01;;;;;;;4.80;1.55;;;20.90;99.90;;;;;;5054572;28;20024;-69
2023/09/29 12:47:27;;;;;;;3.45;1.60;;;20.90;99.90;;;;;;5054859;28;20195;-70
2023/09/29 12:49:53;;;;;;;3.03;1.40;;;20.90;99.90;;;;;;5053953;28;20171;-69